createdAt,value
2023-05-07T00:00:37.082Z,12.80
2023-05-07T00:01:38.596Z,12.80
2023-05-07T00:02:40.019Z,12.80
2023-05-07T00:03:41.511Z,12.80
2023-05-07T00:04:43.305Z,12.80
2023-05-07T00:05:44.825Z,12.80
2023-05-07T00:06:46.241Z,12.80
2023-05-07T00:07:48.045Z,12.80
2023-05-07T00:08:49.666Z,12.80
2023-05-07T00:09:51.901Z,12.80
2023-05-07T00:10:53.427Z,12.80
2023-05-07T00:11:54.843Z,12.80
2023-05-07T00:12:56.542Z,12.80
2023-05-07T00:13:58.060Z,12.90
2023-05-07T00:14:59.485Z,12.90
2023-05-07T00:16:00.877Z,12.90
2023-05-07T00:17:02.462Z,12.80
2023-05-07T00:18:03.963Z,12.80
2023-05-07T00:19:05.647Z,12.80
2023-05-07T00:20:07.887Z,12.80
2023-05-07T00:21:09.483Z,12.80
2023-05-07T00:22:11.318Z,12.80
2023-05-07T00:23:12.750Z,12.80
2023-05-07T00:24:14.207Z,12.80
2023-05-07T00:25:15.995Z,12.80
2023-05-07T00:26:17.683Z,12.80
2023-05-07T00:27:20.815Z,12.80
2023-05-07T00:28:22.606Z,12.80
2023-05-07T00:29:24.312Z,12.80
2023-05-07T00:30:25.759Z,12.80
2023-05-07T00:31:27.582Z,12.80
2023-05-07T00:32:29.019Z,12.80
2023-05-07T00:33:30.475Z,12.80
2023-05-07T00:34:32.061Z,12.80
2023-05-07T00:35:34.188Z,12.80
2023-05-07T00:36:36.241Z,12.70
2023-05-07T00:37:37.671Z,12.80
2023-05-07T00:38:39.153Z,12.80
2023-05-07T00:39:40.650Z,12.80
2023-05-07T00:40:42.126Z,12.80
2023-05-07T00:41:43.608Z,12.80
2023-05-07T00:42:48.270Z,12.80
2023-05-07T00:43:52.558Z,12.80
2023-05-07T00:44:54.860Z,12.80
2023-05-07T00:45:56.943Z,12.80
2023-05-07T00:46:59.011Z,12.80
2023-05-07T00:48:02.352Z,12.80
2023-05-07T00:49:03.882Z,12.80
2023-05-07T00:50:06.590Z,12.80
2023-05-07T00:51:08.314Z,12.80
2023-05-07T00:52:12.625Z,12.80
2023-05-07T00:53:14.792Z,12.80
2023-05-07T00:54:16.377Z,12.80
2023-05-07T00:55:18.272Z,12.80
2023-05-07T00:56:21.441Z,12.80
2023-05-07T00:57:24.976Z,12.80
2023-05-07T00:58:26.709Z,12.80
2023-05-07T00:59:28.706Z,12.80
2023-05-07T01:00:31.002Z,12.80
2023-05-07T01:01:33.429Z,12.80
2023-05-07T01:02:35.176Z,12.80
2023-05-07T01:03:36.744Z,12.80
2023-05-07T01:04:38.848Z,12.80
2023-05-07T01:05:41.967Z,12.80
2023-05-07T01:06:46.137Z,12.80
2023-05-07T01:07:48.485Z,12.80
2023-05-07T01:08:51.572Z,12.80
2023-05-07T01:09:54.176Z,12.80
2023-05-07T01:10:58.279Z,12.80
2023-05-07T01:12:00.181Z,12.80
2023-05-07T01:13:02.715Z,12.90
2023-05-07T01:14:04.843Z,12.90
2023-05-07T01:15:08.708Z,12.90
2023-05-07T01:16:10.956Z,12.80
2023-05-07T01:17:12.821Z,12.80
2023-05-07T01:18:14.782Z,12.80
2023-05-07T01:19:41.252Z,12.80
2023-05-07T01:20:43.710Z,12.80
2023-05-07T01:21:50.099Z,12.80
2023-05-07T01:22:54.613Z,12.80
2023-05-07T01:23:56.244Z,12.80
2023-05-07T01:25:00.386Z,12.80
2023-05-07T01:26:02.976Z,12.80
2023-05-07T01:27:06.429Z,12.80
2023-05-07T01:28:09.360Z,12.80
2023-05-07T01:29:12.918Z,12.80
2023-05-07T01:30:14.638Z,12.80
2023-05-07T01:31:17.575Z,12.70
2023-05-07T01:32:24.932Z,12.70
2023-05-07T01:33:32.448Z,12.70
2023-05-07T01:34:35.772Z,12.70
2023-05-07T01:35:44.800Z,12.70
2023-05-07T01:36:47.436Z,12.60
2023-05-07T01:37:50.363Z,12.70
2023-05-07T01:38:52.745Z,12.70
2023-05-07T01:39:54.684Z,12.70
2023-05-07T01:40:57.915Z,12.70
2023-05-07T01:42:00.633Z,12.70
2023-05-07T01:43:06.764Z,12.70
2023-05-07T01:44:11.549Z,12.60
2023-05-07T01:45:13.169Z,12.60
2023-05-07T01:46:16.314Z,12.50
2023-05-07T01:47:18.452Z,12.50
2023-05-07T01:48:20.166Z,12.60
2023-05-07T01:49:21.633Z,12.50
2023-05-07T01:50:23.919Z,12.50
2023-05-07T01:51:26.185Z,12.50
2023-05-07T01:52:29.028Z,12.50
2023-05-07T01:53:37.551Z,12.50
2023-05-07T01:54:39.257Z,12.50
2023-05-07T01:55:41.204Z,12.40
2023-05-07T01:56:43.295Z,12.40
2023-05-07T01:57:44.972Z,12.50
2023-05-07T01:58:49.900Z,12.50
2023-05-07T01:59:51.662Z,12.40
2023-05-07T02:00:53.721Z,12.40
2023-05-07T02:01:55.489Z,12.40
2023-05-07T02:02:57.985Z,12.40
2023-05-07T02:04:10.664Z,12.40
2023-05-07T02:05:12.208Z,12.40
2023-05-07T02:06:14.753Z,12.40
2023-05-07T02:07:16.649Z,12.40
2023-05-07T02:08:18.162Z,12.30
2023-05-07T02:09:19.780Z,12.30
2023-05-07T02:10:23.675Z,12.30
2023-05-07T02:11:26.204Z,12.30
2023-05-07T02:12:27.784Z,12.30
2023-05-07T02:13:33.272Z,12.30
2023-05-07T02:14:34.666Z,12.30
2023-05-07T02:15:36.175Z,12.30
2023-05-07T02:16:39.213Z,12.30
2023-05-07T02:18:07.719Z,12.20
2023-05-07T02:19:09.676Z,12.20
2023-05-07T02:20:14.378Z,12.20
2023-05-07T02:21:16.986Z,12.20
2023-05-07T02:22:18.756Z,12.20
2023-05-07T02:23:20.745Z,12.20
2023-05-07T02:24:22.582Z,12.10
2023-05-07T02:25:24.122Z,12.10
2023-05-07T02:26:26.933Z,12.20
2023-05-07T02:27:28.600Z,12.20
2023-05-07T02:28:30.396Z,12.20
2023-05-07T02:29:37.080Z,12.10
2023-05-07T02:30:39.436Z,12.10
2023-05-07T02:31:41.634Z,12.10
2023-05-07T02:32:43.391Z,12.10
2023-05-07T02:33:46.325Z,12.10
2023-05-07T02:34:51.290Z,12.10
2023-05-07T02:35:53.451Z,12.10
2023-05-07T02:36:55.089Z,12.10
2023-05-07T02:37:59.204Z,12.10
2023-05-07T02:39:01.260Z,12.10
2023-05-07T02:40:05.064Z,12.10
2023-05-07T02:41:06.564Z,12.00
2023-05-07T02:42:08.110Z,12.10
2023-05-07T02:43:10.026Z,12.10
2023-05-07T02:44:11.701Z,12.00
2023-05-07T02:45:15.348Z,12.00
2023-05-07T02:46:17.833Z,12.00
2023-05-07T02:47:23.470Z,12.00
2023-05-07T02:48:25.490Z,12.00
2023-05-07T02:49:26.835Z,12.00
2023-05-07T02:50:28.454Z,12.00
2023-05-07T02:51:31.583Z,12.00
2023-05-07T02:52:36.284Z,12.00
2023-05-07T02:53:37.873Z,12.00
2023-05-07T02:54:39.260Z,11.90
2023-05-07T02:55:40.677Z,11.90
2023-05-07T02:56:42.564Z,11.90
2023-05-07T02:57:44.190Z,11.90
2023-05-07T02:58:45.806Z,11.90
2023-05-07T02:59:48.474Z,11.90
2023-05-07T03:00:51.143Z,11.90
2023-05-07T03:02:03.618Z,11.90
2023-05-07T03:03:05.227Z,11.80
2023-05-07T03:04:06.680Z,11.90
2023-05-07T03:05:09.215Z,12.00
2023-05-07T03:06:11.401Z,11.90
2023-05-07T03:07:13.063Z,12.00
2023-05-07T03:08:14.531Z,11.90
2023-05-07T03:09:15.946Z,12.00
2023-05-07T03:10:17.780Z,12.00
2023-05-07T03:11:19.385Z,11.90
2023-05-07T03:12:21.265Z,11.90
2023-05-07T03:13:22.817Z,11.90
2023-05-07T03:14:24.238Z,11.90
2023-05-07T03:15:26.559Z,11.80
2023-05-07T03:16:28.997Z,11.80
2023-05-07T03:17:30.613Z,11.80
2023-05-07T03:18:32.227Z,11.80
2023-05-07T03:19:34.453Z,11.80
2023-05-07T03:20:37.661Z,11.80
2023-05-07T03:21:39.328Z,11.80
2023-05-07T03:22:41.115Z,11.80
2023-05-07T03:23:42.721Z,11.80
2023-05-07T03:24:44.136Z,11.80
2023-05-07T03:25:46.199Z,11.80
2023-05-07T03:26:47.898Z,11.70
2023-05-07T03:27:49.648Z,11.80
2023-05-07T03:28:56.490Z,11.80
2023-05-07T03:29:58.250Z,11.70
2023-05-07T03:31:00.163Z,11.70
2023-05-07T03:32:01.955Z,11.80
2023-05-07T03:33:03.619Z,11.70
2023-05-07T03:34:05.592Z,11.80
2023-05-07T03:35:07.565Z,11.80
2023-05-07T03:36:09.301Z,11.80
2023-05-07T03:37:10.841Z,11.80
2023-05-07T03:38:12.813Z,11.80
2023-05-07T03:39:14.208Z,11.70
2023-05-07T03:40:16.622Z,11.70
2023-05-07T03:41:22.636Z,11.70
2023-05-07T03:42:25.584Z,11.70
2023-05-07T03:43:27.677Z,11.70
2023-05-07T03:44:37.238Z,11.70
2023-05-07T03:45:38.758Z,11.70
2023-05-07T03:46:50.949Z,11.80
2023-05-07T03:47:52.687Z,11.80
2023-05-07T03:48:56.016Z,11.80
2023-05-07T03:49:57.593Z,11.80
2023-05-07T03:51:00.314Z,11.70
2023-05-07T03:52:06.376Z,11.70
2023-05-07T03:53:08.238Z,11.70
2023-05-07T03:54:14.089Z,11.80
2023-05-07T03:55:19.791Z,11.70
2023-05-07T03:56:27.766Z,11.80
2023-05-07T03:57:30.601Z,11.70
2023-05-07T03:58:33.347Z,11.70
2023-05-07T03:59:39.826Z,11.70
2023-05-07T04:00:43.654Z,11.70
2023-05-07T04:01:54.058Z,11.70
2023-05-07T04:02:58.140Z,11.60
2023-05-07T04:04:02.626Z,11.60
2023-05-07T04:05:04.806Z,11.60
2023-05-07T04:06:07.155Z,11.60
2023-05-07T04:07:11.039Z,11.60
2023-05-07T04:08:16.735Z,11.70
2023-05-07T04:09:22.283Z,11.70
2023-05-07T04:10:23.855Z,11.70
2023-05-07T04:11:28.823Z,11.70
2023-05-07T04:12:30.647Z,11.70
2023-05-07T04:13:33.554Z,11.70
2023-05-07T04:14:37.195Z,11.70
2023-05-07T04:15:39.062Z,11.80
2023-05-07T04:16:44.281Z,11.80
2023-05-07T04:17:46.028Z,11.80
2023-05-07T04:18:49.758Z,11.70
2023-05-07T04:19:51.815Z,11.80
2023-05-07T04:20:53.615Z,11.80
2023-05-07T04:21:55.056Z,11.70
2023-05-07T04:22:56.656Z,11.80
2023-05-07T04:23:58.654Z,11.70
2023-05-07T04:25:00.170Z,11.80
2023-05-07T04:26:02.464Z,11.80
2023-05-07T04:27:09.245Z,11.70
2023-05-07T04:28:10.905Z,11.80
2023-05-07T04:29:13.024Z,11.80
2023-05-07T04:30:14.952Z,11.80
2023-05-07T04:31:17.631Z,11.80
2023-05-07T04:32:21.658Z,11.90
2023-05-07T04:33:23.538Z,11.90
2023-05-07T04:34:25.978Z,11.90
2023-05-07T04:35:27.922Z,12.00
2023-05-07T04:36:30.365Z,12.00
2023-05-07T04:37:36.445Z,12.00
2023-05-07T04:38:38.440Z,12.00
2023-05-07T04:39:40.436Z,12.00
2023-05-07T04:40:42.254Z,12.00
2023-05-07T04:41:46.152Z,12.00
2023-05-07T04:42:48.041Z,12.10
2023-05-07T04:43:50.078Z,12.10
2023-05-07T04:44:54.485Z,12.10
2023-05-07T04:45:56.906Z,12.10
2023-05-07T04:47:01.196Z,12.20
2023-05-07T04:48:03.040Z,12.10
2023-05-07T04:49:06.715Z,12.20
2023-05-07T04:50:09.394Z,12.20
2023-05-07T04:51:11.452Z,12.20
2023-05-07T04:52:13.224Z,12.20
2023-05-07T04:53:14.858Z,12.20
2023-05-07T04:54:16.305Z,12.20
2023-05-07T04:55:17.933Z,12.20
2023-05-07T04:56:19.731Z,12.30
2023-05-07T04:57:22.248Z,12.30
2023-05-07T04:58:24.682Z,12.30
2023-05-07T04:59:26.054Z,12.30
2023-05-07T05:00:27.617Z,12.40
2023-05-07T05:01:30.635Z,12.50
2023-05-07T05:02:32.358Z,12.50
2023-05-07T05:03:34.343Z,12.50
2023-05-07T05:04:35.957Z,12.60
2023-05-07T05:05:38.226Z,12.60
2023-05-07T05:06:40.804Z,12.60
2023-05-07T05:07:43.115Z,12.60
2023-05-07T05:08:44.745Z,12.70
2023-05-07T05:09:46.264Z,12.70
2023-05-07T05:10:49.720Z,12.80
2023-05-07T05:11:51.357Z,12.80
2023-05-07T05:12:53.050Z,12.80
2023-05-07T05:13:56.685Z,12.90
2023-05-07T05:14:58.198Z,12.90
2023-05-07T05:15:59.631Z,13.00
2023-05-07T05:17:04.711Z,13.00
2023-05-07T05:18:06.396Z,13.10
2023-05-07T05:19:08.331Z,13.20
2023-05-07T05:20:13.294Z,13.20
2023-05-07T05:21:16.144Z,13.30
2023-05-07T05:22:19.465Z,13.30
2023-05-07T05:23:21.176Z,13.30
2023-05-07T05:24:23.035Z,13.40
2023-05-07T05:25:24.720Z,13.40
2023-05-07T05:26:26.766Z,13.40
2023-05-07T05:27:28.231Z,13.50
2023-05-07T05:28:29.804Z,13.50
2023-05-07T05:29:32.773Z,13.50
2023-05-07T05:30:34.238Z,13.60
2023-05-07T05:31:36.359Z,13.70
2023-05-07T05:32:37.972Z,13.70
2023-05-07T05:33:40.953Z,13.70
2023-05-07T05:34:42.851Z,13.70
2023-05-07T05:35:44.544Z,13.80
2023-05-07T05:36:47.482Z,13.90
2023-05-07T05:37:50.413Z,13.90
2023-05-07T05:38:53.094Z,13.90
2023-05-07T05:39:55.744Z,13.90
2023-05-07T05:40:57.314Z,13.90
2023-05-07T05:41:58.951Z,14.00
2023-05-07T05:43:01.090Z,14.00
2023-05-07T05:44:02.923Z,14.00
2023-05-07T05:45:05.156Z,14.10
2023-05-07T05:46:09.300Z,14.10
2023-05-07T05:47:11.166Z,14.10
2023-05-07T05:48:13.048Z,14.20
2023-05-07T05:49:15.384Z,14.20
2023-05-07T05:50:18.304Z,14.20
2023-05-07T05:51:19.886Z,14.20
2023-05-07T05:52:24.669Z,14.30
2023-05-07T05:53:26.760Z,14.40
2023-05-07T05:54:28.943Z,14.50
2023-05-07T05:55:31.146Z,14.50
2023-05-07T05:56:32.860Z,14.50
2023-05-07T05:57:34.485Z,14.60
2023-05-07T05:58:36.198Z,14.70
2023-05-07T05:59:41.147Z,14.80
2023-05-07T06:00:43.210Z,14.90
2023-05-07T06:01:44.606Z,15.00
2023-05-07T06:02:46.943Z,15.10
2023-05-07T06:03:54.026Z,15.20
2023-05-07T06:04:55.480Z,15.30
2023-05-07T06:05:58.268Z,15.30
2023-05-07T06:06:59.861Z,15.30
2023-05-07T06:08:01.521Z,15.40
2023-05-07T06:09:07.049Z,15.50
2023-05-07T06:10:16.582Z,15.60
2023-05-07T06:11:18.031Z,15.70
2023-05-07T06:12:22.112Z,15.80
2023-05-07T06:13:24.365Z,15.90
2023-05-07T06:14:26.448Z,16.00
2023-05-07T06:15:29.943Z,16.10
2023-05-07T06:16:31.785Z,16.20
2023-05-07T06:17:33.432Z,16.30
2023-05-07T06:18:37.420Z,16.50
2023-05-07T06:19:39.602Z,16.50
2023-05-07T06:20:41.564Z,16.60
2023-05-07T06:21:47.896Z,16.60
2023-05-07T06:22:49.498Z,16.70
2023-05-07T06:23:53.183Z,16.80
2023-05-07T06:24:54.612Z,16.70
2023-05-07T06:25:56.124Z,16.60
2023-05-07T06:27:02.113Z,16.50
2023-05-07T06:28:05.190Z,16.50
2023-05-07T06:29:08.561Z,16.50
2023-05-07T06:30:10.588Z,16.40
2023-05-07T06:31:16.921Z,16.40
2023-05-07T06:32:23.149Z,16.30
2023-05-07T06:33:26.143Z,16.30
2023-05-07T06:34:27.494Z,16.30
2023-05-07T06:35:29.036Z,16.30
2023-05-07T06:36:31.208Z,16.10
2023-05-07T06:37:34.523Z,16.10
2023-05-07T06:38:39.019Z,16.10
2023-05-07T06:39:40.716Z,16.20
2023-05-07T06:40:42.385Z,16.20
2023-05-07T06:41:43.829Z,16.20
2023-05-07T06:42:56.849Z,16.40
2023-05-07T06:44:18.507Z,16.40
2023-05-07T06:45:23.820Z,16.30
2023-05-07T06:46:25.397Z,16.30
2023-05-07T06:47:27.027Z,16.40
2023-05-07T06:48:30.265Z,16.50
2023-05-07T06:49:36.387Z,16.40
2023-05-07T06:50:37.816Z,16.50
2023-05-07T06:51:39.530Z,16.50
2023-05-07T06:52:41.527Z,16.50
2023-05-07T06:53:43.195Z,16.50
2023-05-07T06:54:46.622Z,16.50
2023-05-07T06:55:50.898Z,16.50
2023-05-07T06:56:55.091Z,16.50
2023-05-07T06:58:01.954Z,16.60
2023-05-07T06:59:04.587Z,16.70
2023-05-07T07:00:11.096Z,16.70
2023-05-07T07:01:21.223Z,16.70
2023-05-07T07:02:23.213Z,16.70
2023-05-07T07:03:25.732Z,16.70
2023-05-07T07:04:29.767Z,16.60
2023-05-07T07:05:37.578Z,16.60
2023-05-07T07:06:39.319Z,16.60
2023-05-07T07:07:44.875Z,16.60
2023-05-07T07:08:46.604Z,16.60
2023-05-07T07:09:51.360Z,16.70
2023-05-07T07:10:54.158Z,16.70
2023-05-07T07:11:55.655Z,16.70
2023-05-07T07:12:57.386Z,16.70
2023-05-07T07:13:59.998Z,16.70
2023-05-07T07:15:01.695Z,16.70
2023-05-07T07:16:03.984Z,16.70
2023-05-07T07:17:06.279Z,16.80
2023-05-07T07:18:09.460Z,16.80
2023-05-07T07:19:11.075Z,16.80
2023-05-07T07:20:13.664Z,16.90
2023-05-07T07:21:16.095Z,17.00
2023-05-07T07:22:21.519Z,17.10
2023-05-07T07:23:23.212Z,17.00
2023-05-07T07:24:24.912Z,17.10
2023-05-07T07:25:31.651Z,17.10
2023-05-07T07:26:33.152Z,17.10
2023-05-07T07:27:35.152Z,17.10
2023-05-07T07:28:44.637Z,17.10
2023-05-07T07:29:47.683Z,17.20
2023-05-07T07:30:49.275Z,17.20
2023-05-07T07:31:51.614Z,17.20
2023-05-07T07:32:56.325Z,17.20
2023-05-07T07:33:57.929Z,17.40
2023-05-07T07:35:00.570Z,17.40
2023-05-07T07:36:03.483Z,17.40
2023-05-07T07:37:07.146Z,17.40
2023-05-07T07:38:09.887Z,17.50
2023-05-07T07:39:11.572Z,17.50
2023-05-07T07:40:13.846Z,17.40
2023-05-07T07:41:15.693Z,17.30
2023-05-07T07:42:17.334Z,17.30
2023-05-07T07:43:19.176Z,17.30
2023-05-07T07:44:21.628Z,17.20
2023-05-07T07:45:28.274Z,17.30
2023-05-07T07:46:29.735Z,17.30
2023-05-07T07:47:31.390Z,17.30
2023-05-07T07:48:32.893Z,17.40
2023-05-07T07:49:34.590Z,17.40
2023-05-07T07:50:45.250Z,17.50
2023-05-07T07:51:50.262Z,17.60
2023-05-07T07:52:52.453Z,17.70
2023-05-07T07:53:53.934Z,17.80
2023-05-07T07:54:55.403Z,17.80
2023-05-07T07:55:59.214Z,17.80
2023-05-07T07:57:03.369Z,17.90
2023-05-07T07:58:07.293Z,18.00
2023-05-07T07:59:09.385Z,18.10
2023-05-07T08:00:14.123Z,18.20
2023-05-07T08:01:18.515Z,18.30
2023-05-07T08:02:21.510Z,18.30
2023-05-07T08:03:25.130Z,18.30
2023-05-07T08:04:34.159Z,18.30
2023-05-07T08:05:39.516Z,18.30
2023-05-07T08:06:41.759Z,18.30
2023-05-07T08:07:44.219Z,18.30
2023-05-07T08:08:47.352Z,18.30
2023-05-07T08:09:48.949Z,18.40
2023-05-07T08:10:52.249Z,18.50
2023-05-07T08:12:02.234Z,18.50
2023-05-07T08:13:05.677Z,18.60
2023-05-07T08:14:09.067Z,18.60
2023-05-07T08:15:10.947Z,18.70
2023-05-07T08:16:12.514Z,18.70
2023-05-07T08:17:16.892Z,18.70
2023-05-07T08:18:19.216Z,18.90
2023-05-07T08:19:21.380Z,18.90
2023-05-07T08:20:23.186Z,19.00
2023-05-07T08:21:24.639Z,19.00
2023-05-07T08:22:26.709Z,19.00
2023-05-07T08:23:28.271Z,19.00
2023-05-07T08:24:30.473Z,19.10
2023-05-07T08:25:33.592Z,19.30
2023-05-07T08:26:36.902Z,19.40
2023-05-07T08:27:38.766Z,19.50
2023-05-07T08:28:41.054Z,19.40
2023-05-07T08:29:43.184Z,19.50
2023-05-07T08:30:44.754Z,19.50
2023-05-07T08:31:46.263Z,19.60
2023-05-07T08:32:47.725Z,19.70
2023-05-07T08:33:49.517Z,19.80
2023-05-07T08:34:51.592Z,19.90
2023-05-07T08:35:53.045Z,19.90
2023-05-07T08:36:54.468Z,19.90
2023-05-07T08:37:58.485Z,19.90
2023-05-07T08:39:03.796Z,19.90
2023-05-07T08:40:10.124Z,19.90
2023-05-07T08:41:13.054Z,20.00
2023-05-07T08:42:18.875Z,20.10
2023-05-07T08:43:21.802Z,20.30
2023-05-07T08:44:26.932Z,20.30
2023-05-07T08:45:31.480Z,20.40
2023-05-07T08:46:33.738Z,20.30
2023-05-07T08:47:47.970Z,19.90
2023-05-07T08:48:52.994Z,19.90
2023-05-07T08:49:56.343Z,19.80
2023-05-07T08:51:00.557Z,19.80
2023-05-07T08:52:02.413Z,20.00
2023-05-07T08:53:05.608Z,20.10
2023-05-07T08:54:08.148Z,20.10
2023-05-07T08:55:11.532Z,20.10
2023-05-07T08:56:14.429Z,20.10
2023-05-07T08:57:15.980Z,20.10
2023-05-07T08:58:17.626Z,20.20
2023-05-07T08:59:19.038Z,20.30
2023-05-07T09:00:20.636Z,20.30
2023-05-07T09:01:26.423Z,20.40
2023-05-07T09:02:29.606Z,20.50
2023-05-07T09:03:32.590Z,20.70
2023-05-07T09:04:34.348Z,20.80
2023-05-07T09:05:37.020Z,20.80
2023-05-07T09:06:42.929Z,21.00
2023-05-07T09:07:47.368Z,21.10
2023-05-07T09:08:54.464Z,21.20
2023-05-07T09:09:58.809Z,21.20
2023-05-07T09:11:02.009Z,21.30
2023-05-07T09:12:04.758Z,21.30
2023-05-07T09:13:08.983Z,21.40
2023-05-07T09:14:10.867Z,21.20
2023-05-07T09:15:16.023Z,21.20
2023-05-07T09:16:18.259Z,21.20
2023-05-07T09:17:21.212Z,21.20
2023-05-07T09:18:26.524Z,21.20
2023-05-07T09:19:28.710Z,21.20
2023-05-07T09:20:33.132Z,21.30
2023-05-07T09:21:36.154Z,21.30
2023-05-07T09:22:40.987Z,21.30
2023-05-07T09:23:46.951Z,21.40
2023-05-07T09:24:50.809Z,21.50
2023-05-07T09:26:01.590Z,21.40
2023-05-07T09:27:06.872Z,21.30
2023-05-07T09:28:08.694Z,21.40
2023-05-07T09:29:11.649Z,21.40
2023-05-07T09:30:14.263Z,21.50
2023-05-07T09:31:17.233Z,21.50
2023-05-07T09:32:21.305Z,21.50
2023-05-07T09:33:29.404Z,21.60
2023-05-07T09:34:31.916Z,21.60
2023-05-07T09:35:33.756Z,21.60
2023-05-07T09:36:41.291Z,21.70
2023-05-07T09:37:42.964Z,21.80
2023-05-07T09:38:44.615Z,22.00
2023-05-07T09:39:48.236Z,22.00
2023-05-07T09:41:12.606Z,22.00
2023-05-07T09:42:26.536Z,22.00
2023-05-07T09:43:36.900Z,22.00
2023-05-07T09:44:41.014Z,22.00
2023-05-07T09:45:52.320Z,22.10
2023-05-07T09:46:59.477Z,22.00
2023-05-07T09:48:11.610Z,22.10
2023-05-07T09:49:22.771Z,21.90
2023-05-07T09:50:29.436Z,21.90
2023-05-07T09:51:52.553Z,21.90
2023-05-07T09:52:57.846Z,22.00
2023-05-07T09:54:03.911Z,22.10
2023-05-07T09:55:09.134Z,22.10
2023-05-07T09:56:13.778Z,22.20
2023-05-07T09:57:16.419Z,22.30
2023-05-07T09:58:21.222Z,22.10
2023-05-07T09:59:23.460Z,21.80
2023-05-07T10:00:28.736Z,21.60
2023-05-07T10:01:39.904Z,21.70
2023-05-07T10:02:47.316Z,21.70
2023-05-07T10:03:51.678Z,21.00
2023-05-07T10:04:54.330Z,21.10
2023-05-07T10:06:01.521Z,21.00
2023-05-07T10:07:05.670Z,21.10
2023-05-07T10:08:09.404Z,21.00
2023-05-07T10:09:13.591Z,20.90
2023-05-07T10:10:16.830Z,20.90
2023-05-07T10:11:21.529Z,20.80
2023-05-07T10:12:24.186Z,20.80
2023-05-07T10:13:26.368Z,20.70
2023-05-07T10:14:31.108Z,20.60
2023-05-07T10:15:33.676Z,20.40
2023-05-07T10:16:38.078Z,20.20
2023-05-07T10:17:44.214Z,20.00
2023-05-07T10:18:49.282Z,19.80
2023-05-07T10:19:55.968Z,19.60
2023-05-07T10:21:05.233Z,19.50
2023-05-07T10:22:08.194Z,19.50
2023-05-07T10:23:24.292Z,19.30
2023-05-07T10:24:30.673Z,19.10
2023-05-07T10:25:34.030Z,18.90
2023-05-07T10:26:46.668Z,18.90
2023-05-07T10:27:51.965Z,18.70
2023-05-07T10:29:00.748Z,18.70
2023-05-07T10:30:38.508Z,18.50
2023-05-07T10:32:25.619Z,18.40
2023-05-07T10:33:29.934Z,18.20
2023-05-07T10:34:38.542Z,18.10
2023-05-07T10:35:42.433Z,18.10
2023-05-07T10:36:44.974Z,18.00
2023-05-07T10:37:47.924Z,18.00
2023-05-07T10:38:49.578Z,17.90
2023-05-07T10:39:53.651Z,17.90
2023-05-07T10:40:55.802Z,17.90
2023-05-07T10:41:57.664Z,17.90
2023-05-07T10:43:01.428Z,17.90
2023-05-07T10:44:07.053Z,17.80
2023-05-07T10:45:17.801Z,17.80
2023-05-07T10:46:23.689Z,17.90
2023-05-07T10:47:35.520Z,17.80
2023-05-07T10:49:12.571Z,17.90
2023-05-07T10:50:23.596Z,17.70
2023-05-07T10:51:27.162Z,17.70
2023-05-07T10:52:37.306Z,17.70
2023-05-07T10:53:43.209Z,17.60
2023-05-07T10:55:26.801Z,17.60
2023-05-07T10:56:44.618Z,17.70
2023-05-07T10:57:51.919Z,17.90
2023-05-07T10:59:22.242Z,17.90
2023-05-07T11:00:38.852Z,17.80
2023-05-07T11:02:04.053Z,17.70
2023-05-07T11:03:15.986Z,17.70
2023-05-07T11:04:28.346Z,17.80
2023-05-07T11:06:13.714Z,18.00
2023-05-07T11:07:32.379Z,18.20
2023-05-07T11:08:58.228Z,18.40
2023-05-07T11:10:50.815Z,18.40
2023-05-07T11:12:00.621Z,18.50
2023-05-07T11:13:11.610Z,18.70
2023-05-07T11:14:45.436Z,19.00
2023-05-07T11:15:54.297Z,19.10
2023-05-07T11:17:08.199Z,19.20
2023-05-07T11:18:11.086Z,19.40
2023-05-07T11:19:14.753Z,19.40
2023-05-07T11:20:21.468Z,19.20
2023-05-07T11:21:41.123Z,19.30
2023-05-07T11:22:58.970Z,19.30
2023-05-07T11:24:07.892Z,19.50
2023-05-07T11:25:24.945Z,19.80
2023-05-07T11:26:49.497Z,20.10
2023-05-07T11:27:52.762Z,20.40
2023-05-07T11:28:56.248Z,20.60
2023-05-07T11:30:00.149Z,20.90
2023-05-07T11:31:01.882Z,21.00
2023-05-07T11:32:04.173Z,21.10
2023-05-07T11:33:11.258Z,21.20
2023-05-07T11:34:16.292Z,21.40
2023-05-07T11:35:18.918Z,21.40
2023-05-07T11:36:24.655Z,21.50
2023-05-07T11:37:31.216Z,21.60
2023-05-07T11:38:38.070Z,21.60
2023-05-07T11:39:39.497Z,21.60
2023-05-07T11:40:53.631Z,21.60
2023-05-07T11:41:55.555Z,21.70
2023-05-07T11:42:57.086Z,21.50
2023-05-07T11:43:59.939Z,21.40
2023-05-07T11:45:02.590Z,21.40
2023-05-07T11:46:12.655Z,21.50
2023-05-07T11:47:19.941Z,21.40
2023-05-07T11:48:23.444Z,21.20
2023-05-07T11:49:27.657Z,20.90
2023-05-07T11:50:29.317Z,20.70
2023-05-07T11:51:31.768Z,20.70
2023-05-07T11:52:33.862Z,20.40
2023-05-07T11:53:40.450Z,20.20
2023-05-07T11:54:41.790Z,20.20
2023-05-07T11:55:43.530Z,20.20
2023-05-07T11:56:46.300Z,20.10
2023-05-07T11:57:48.105Z,20.20
2023-05-07T11:58:50.576Z,20.30
2023-05-07T11:59:56.187Z,20.40
2023-05-07T12:00:57.898Z,20.50
2023-05-07T12:02:00.567Z,20.60
2023-05-07T12:03:08.089Z,20.70
2023-05-07T12:04:09.795Z,20.80
2023-05-07T12:05:11.590Z,20.80
2023-05-07T12:06:15.839Z,20.90
2023-05-07T12:07:17.967Z,20.90
2023-05-07T12:08:21.397Z,20.90
2023-05-07T12:09:22.898Z,21.00
2023-05-07T12:10:25.891Z,21.00
2023-05-07T12:11:27.280Z,21.10
2023-05-07T12:12:28.869Z,21.20
2023-05-07T12:13:30.684Z,21.20
2023-05-07T12:14:33.535Z,21.30
2023-05-07T12:15:36.511Z,21.40
2023-05-07T12:16:40.789Z,21.40
2023-05-07T12:17:43.025Z,21.30
2023-05-07T12:18:45.855Z,21.40
2023-05-07T12:19:48.009Z,21.60
2023-05-07T12:20:50.097Z,21.80
2023-05-07T12:21:52.053Z,21.70
2023-05-07T12:22:53.827Z,21.80
2023-05-07T12:23:55.708Z,21.90
2023-05-07T12:25:00.522Z,21.70
2023-05-07T12:26:03.115Z,21.80
2023-05-07T12:27:06.853Z,21.80
2023-05-07T12:28:09.056Z,21.90
2023-05-07T12:29:10.768Z,21.90
2023-05-07T12:30:13.233Z,21.80
2023-05-07T12:31:15.931Z,21.80
2023-05-07T12:32:19.707Z,21.70
2023-05-07T12:33:26.360Z,21.60
2023-05-07T12:34:28.818Z,21.50
2023-05-07T12:35:40.420Z,21.50
2023-05-07T12:36:42.345Z,21.40
2023-05-07T12:37:44.303Z,21.50
2023-05-07T12:38:46.114Z,21.50
2023-05-07T12:40:04.138Z,21.50
2023-05-07T12:41:08.164Z,21.50
2023-05-07T12:42:15.927Z,21.50
2023-05-07T12:43:28.060Z,21.50
2023-05-07T12:44:34.042Z,21.50
2023-05-07T12:45:42.394Z,21.40
2023-05-07T12:46:43.976Z,21.40
2023-05-07T12:47:49.046Z,21.20
2023-05-07T12:48:51.275Z,21.30
2023-05-07T12:49:52.666Z,21.20
2023-05-07T12:50:55.873Z,21.10
2023-05-07T12:51:57.639Z,21.10
2023-05-07T12:52:59.421Z,21.10
2023-05-07T12:54:01.381Z,20.90
2023-05-07T12:55:07.900Z,20.90
2023-05-07T12:56:09.984Z,20.90
2023-05-07T12:57:11.851Z,21.00
2023-05-07T12:58:20.534Z,21.00
2023-05-07T12:59:32.684Z,21.00
2023-05-07T13:00:38.774Z,20.90
2023-05-07T13:01:40.302Z,20.80
2023-05-07T13:02:46.958Z,20.80
2023-05-07T13:03:51.346Z,20.70
2023-05-07T13:04:54.053Z,20.90
2023-05-07T13:05:59.374Z,20.90
2023-05-07T13:07:01.740Z,20.80
2023-05-07T13:08:03.206Z,20.80
2023-05-07T13:09:05.822Z,20.80
2023-05-07T13:10:07.896Z,20.90
2023-05-07T13:11:11.117Z,20.90
2023-05-07T13:12:12.508Z,21.00
2023-05-07T13:13:14.025Z,21.10
2023-05-07T13:14:15.855Z,21.00
2023-05-07T13:15:17.866Z,21.10
2023-05-07T13:16:22.353Z,20.90
2023-05-07T13:17:24.569Z,20.70
2023-05-07T13:18:27.559Z,20.60
2023-05-07T13:19:31.412Z,20.70
2023-05-07T13:20:33.402Z,20.70
2023-05-07T13:21:34.950Z,20.70
2023-05-07T13:22:36.825Z,20.80
2023-05-07T13:23:39.536Z,20.90
2023-05-07T13:24:42.695Z,20.90
2023-05-07T13:25:44.423Z,21.00
2023-05-07T13:26:46.418Z,21.00
2023-05-07T13:27:53.862Z,20.90
2023-05-07T13:29:01.423Z,20.90
2023-05-07T13:30:03.615Z,20.90
2023-05-07T13:31:05.152Z,21.00
2023-05-07T13:32:07.468Z,21.10
2023-05-07T13:33:09.093Z,21.20
2023-05-07T13:34:10.714Z,21.30
2023-05-07T13:35:12.627Z,21.40
2023-05-07T13:36:15.003Z,21.40
2023-05-07T13:37:16.494Z,21.40
2023-05-07T13:38:17.937Z,21.40
2023-05-07T13:39:19.395Z,21.50
2023-05-07T13:40:21.011Z,21.60
2023-05-07T13:41:22.712Z,21.70
2023-05-07T13:42:24.387Z,21.70
2023-05-07T13:43:26.562Z,21.70
2023-05-07T13:44:28.068Z,21.70
2023-05-07T13:45:33.138Z,21.80